sensor_id;sensor_type;location;lat;lon;timestamp;pressure;altitude;pressure_sealevel;temperature;humidity
33185;BME280;19550;42.872;25.494;2023-04-01T00:01:10;95511.34;;;6.83;100.00
33185;BME280;19550;42.872;25.494;2023-04-01T00:03:39;95509.78;;;6.60;100.00
33185;BME280;19550;42.872;25.494;2023-04-01T00:06:06;95497.28;;;6.54;100.00
33185;BME280;19550;42.872;25.494;2023-04-01T00:08:33;95491.78;;;6.54;100.00
33185;BME280;19550;42.872;25.494;2023-04-01T00:11:00;95488.06;;;6.50;100.00
33185;BME280;19550;42.872;25.494;2023-04-01T00:13:26;95490.59;;;6.46;100.00
33185;BME280;19550;42.872;25.494;2023-04-01T00:15:55;95493.34;;;6.46;100.00
33185;BME280;19550;42.872;25.494;2023-04-01T00:18:22;95499.31;;;6.39;100.00
33185;BME280;19550;42.872;25.494;2023-04-01T00:20:50;95499.06;;;6.50;100.00
33185;BME280;19550;42.872;25.494;2023-04-01T00:23:18;95498.03;;;6.37;100.00
33185;BME280;19550;42.872;25.494;2023-04-01T00:25:45;95497.84;;;6.33;100.00
33185;BME280;19550;42.872;25.494;2023-04-01T00:28:13;95499.91;;;6.28;100.00
33185;BME280;19550;42.872;25.494;2023-04-01T00:30:40;95491.88;;;6.40;100.00
33185;BME280;19550;42.872;25.494;2023-04-01T00:33:08;95496.19;;;6.24;100.00
33185;BME280;19550;42.872;25.494;2023-04-01T00:35:35;95485.13;;;6.15;100.00
33185;BME280;19550;42.872;25.494;2023-04-01T00:38:02;95477.13;;;6.05;100.00
33185;BME280;19550;42.872;25.494;2023-04-01T00:40:32;95482.97;;;6.12;100.00
33185;BME280;19550;42.872;25.494;2023-04-01T00:43:00;95488.84;;;6.19;100.00
33185;BME280;19550;42.872;25.494;2023-04-01T00:45:31;95483.19;;;6.16;100.00
33185;BME280;19550;42.872;25.494;2023-04-01T00:48:00;95473.31;;;6.15;100.00
33185;BME280;19550;42.872;25.494;2023-04-01T00:50:30;95475.91;;;6.20;100.00
33185;BME280;19550;42.872;25.494;2023-04-01T00:52:58;95461.16;;;6.16;100.00
33185;BME280;19550;42.872;25.494;2023-04-01T00:55:27;95452.59;;;6.17;100.00
33185;BME280;19550;42.872;25.494;2023-04-01T00:57:57;95461.47;;;6.14;100.00
33185;BME280;19550;42.872;25.494;2023-04-01T01:00:25;95447.41;;;6.16;100.00
33185;BME280;19550;42.872;25.494;2023-04-01T01:02:52;95448.19;;;6.08;100.00
33185;BME280;19550;42.872;25.494;2023-04-01T01:05:26;95440.56;;;6.05;100.00
33185;BME280;19550;42.872;25.494;2023-04-01T01:08:02;95437.56;;;5.92;100.00
33185;BME280;19550;42.872;25.494;2023-04-01T01:10:33;95439.19;;;5.93;100.00
33185;BME280;19550;42.872;25.494;2023-04-01T01:13:09;95443.06;;;5.92;100.00
33185;BME280;19550;42.872;25.494;2023-04-01T01:15:41;95441.69;;;5.81;100.00
33185;BME280;19550;42.872;25.494;2023-04-01T01:18:19;95436.28;;;5.90;100.00
33185;BME280;19550;42.872;25.494;2023-04-01T01:24:07;95440.38;;;5.79;100.00
33185;BME280;19550;42.872;25.494;2023-04-01T01:27:01;95440.16;;;5.89;100.00
33185;BME280;19550;42.872;25.494;2023-04-01T01:29:45;95426.63;;;5.79;100.00
33185;BME280;19550;42.872;25.494;2023-04-01T01:32:25;95420.63;;;5.77;100.00
33185;BME280;19550;42.872;25.494;2023-04-01T01:35:16;95425.13;;;5.73;100.00
33185;BME280;19550;42.872;25.494;2023-04-01T01:37:46;95420.06;;;5.66;100.00
33185;BME280;19550;42.872;25.494;2023-04-01T01:40:15;95425.75;;;5.70;100.00
33185;BME280;19550;42.872;25.494;2023-04-01T01:42:46;95426.06;;;5.68;100.00
33185;BME280;19550;42.872;25.494;2023-04-01T01:45:16;95430.81;;;5.76;100.00
33185;BME280;19550;42.872;25.494;2023-04-01T01:47:45;95422.25;;;5.78;100.00
33185;BME280;19550;42.872;25.494;2023-04-01T01:50:15;95428.25;;;5.80;100.00
33185;BME280;19550;42.872;25.494;2023-04-01T01:52:43;95430.88;;;5.85;100.00
33185;BME280;19550;42.872;25.494;2023-04-01T01:55:26;95429.81;;;5.72;100.00
33185;BME280;19550;42.872;25.494;2023-04-01T01:57:54;95428.50;;;5.70;100.00
33185;BME280;19550;42.872;25.494;2023-04-01T02:00:22;95411.56;;;5.76;100.00
33185;BME280;19550;42.872;25.494;2023-04-01T02:02:50;95415.44;;;5.75;100.00
33185;BME280;19550;42.872;25.494;2023-04-01T02:05:19;95404.44;;;5.75;100.00
33185;BME280;19550;42.872;25.494;2023-04-01T02:07:51;95399.09;;;5.70;100.00
33185;BME280;19550;42.872;25.494;2023-04-01T02:10:22;95404.16;;;5.77;100.00
33185;BME280;19550;42.872;25.494;2023-04-01T02:12:51;95398.34;;;5.78;100.00
33185;BME280;19550;42.872;25.494;2023-04-01T02:15:20;95399.25;;;5.74;100.00
33185;BME280;19550;42.872;25.494;2023-04-01T02:17:49;95397.59;;;5.64;100.00
33185;BME280;19550;42.872;25.494;2023-04-01T02:20:20;95392.91;;;5.65;100.00
33185;BME280;19550;42.872;25.494;2023-04-01T02:22:50;95384.41;;;5.52;100.00
33185;BME280;19550;42.872;25.494;2023-04-01T02:25:20;95385.72;;;5.55;100.00
33185;BME280;19550;42.872;25.494;2023-04-01T02:27:47;95387.13;;;5.44;100.00
33185;BME280;19550;42.872;25.494;2023-04-01T02:30:16;95380.16;;;5.46;100.00
33185;BME280;19550;42.872;25.494;2023-04-01T02:32:44;95387.94;;;5.44;100.00
33185;BME280;19550;42.872;25.494;2023-04-01T02:35:14;95375.34;;;5.52;100.00
33185;BME280;19550;42.872;25.494;2023-04-01T02:37:44;95376.31;;;5.47;100.00
33185;BME280;19550;42.872;25.494;2023-04-01T02:40:14;95370.66;;;5.52;100.00
33185;BME280;19550;42.872;25.494;2023-04-01T02:42:42;95372.28;;;5.53;100.00
33185;BME280;19550;42.872;25.494;2023-04-01T02:45:10;95373.84;;;5.46;100.00
33185;BME280;19550;42.872;25.494;2023-04-01T02:47:37;95372.13;;;5.50;100.00
33185;BME280;19550;42.872;25.494;2023-04-01T02:50:05;95371.09;;;5.46;100.00
33185;BME280;19550;42.872;25.494;2023-04-01T02:52:32;95378.53;;;5.45;100.00
33185;BME280;19550;42.872;25.494;2023-04-01T02:55:00;95369.41;;;5.58;100.00
33185;BME280;19550;42.872;25.494;2023-04-01T02:57:27;95377.19;;;5.56;100.00
33185;BME280;19550;42.872;25.494;2023-04-01T02:59:54;95375.91;;;5.63;100.00
33185;BME280;19550;42.872;25.494;2023-04-01T03:02:21;95371.91;;;5.69;100.00
33185;BME280;19550;42.872;25.494;2023-04-01T03:04:48;95372.81;;;5.55;100.00
33185;BME280;19550;42.872;25.494;2023-04-01T03:07:14;95365.97;;;5.53;100.00
33185;BME280;19550;42.872;25.494;2023-04-01T03:09:41;95362.13;;;5.54;100.00
33185;BME280;19550;42.872;25.494;2023-04-01T03:12:10;95358.25;;;5.55;100.00
33185;BME280;19550;42.872;25.494;2023-04-01T03:14:36;95350.69;;;5.60;100.00
33185;BME280;19550;42.872;25.494;2023-04-01T03:17:03;95360.63;;;5.48;100.00
33185;BME280;19550;42.872;25.494;2023-04-01T03:19:30;95349.25;;;5.41;100.00
33185;BME280;19550;42.872;25.494;2023-04-01T03:21:57;95347.47;;;5.36;100.00
33185;BME280;19550;42.872;25.494;2023-04-01T03:24:24;95349.63;;;5.48;100.00
33185;BME280;19550;42.872;25.494;2023-04-01T03:26:51;95347.09;;;5.29;100.00
33185;BME280;19550;42.872;25.494;2023-04-01T03:29:19;95348.22;;;5.28;100.00
33185;BME280;19550;42.872;25.494;2023-04-01T03:31:46;95347.84;;;5.43;100.00
33185;BME280;19550;42.872;25.494;2023-04-01T03:34:13;95335.28;;;5.29;100.00
33185;BME280;19550;42.872;25.494;2023-04-01T03:36:39;95349.84;;;5.51;100.00
33185;BME280;19550;42.872;25.494;2023-04-01T03:39:06;95348.66;;;5.44;100.00
33185;BME280;19550;42.872;25.494;2023-04-01T03:41:35;95345.63;;;5.54;100.00
33185;BME280;19550;42.872;25.494;2023-04-01T03:44:02;95342.19;;;5.48;100.00
33185;BME280;19550;42.872;25.494;2023-04-01T03:46:30;95350.97;;;5.50;100.00
33185;BME280;19550;42.872;25.494;2023-04-01T03:48:57;95348.88;;;5.56;100.00
33185;BME280;19550;42.872;25.494;2023-04-01T03:51:24;95345.13;;;5.52;100.00
33185;BME280;19550;42.872;25.494;2023-04-01T03:53:51;95357.94;;;5.56;100.00
33185;BME280;19550;42.872;25.494;2023-04-01T03:56:18;95353.78;;;5.68;100.00
33185;BME280;19550;42.872;25.494;2023-04-01T03:58:44;95353.63;;;5.64;100.00
33185;BME280;19550;42.872;25.494;2023-04-01T04:01:16;95358.66;;;5.71;100.00
33185;BME280;19550;42.872;25.494;2023-04-01T04:03:45;95347.41;;;5.58;100.00
33185;BME280;19550;42.872;25.494;2023-04-01T04:06:13;95349.72;;;5.65;100.00
33185;BME280;19550;42.872;25.494;2023-04-01T04:08:40;95343.00;;;5.71;100.00
33185;BME280;19550;42.872;25.494;2023-04-01T04:11:07;95330.38;;;5.79;100.00
33185;BME280;19550;42.872;25.494;2023-04-01T04:13:34;95325.91;;;5.83;100.00
33185;BME280;19550;42.872;25.494;2023-04-01T04:16:02;95324.66;;;5.89;100.00
33185;BME280;19550;42.872;25.494;2023-04-01T04:18:29;95327.09;;;5.99;100.00
33185;BME280;19550;42.872;25.494;2023-04-01T04:20:57;95335.00;;;5.92;100.00
33185;BME280;19550;42.872;25.494;2023-04-01T04:23:24;95330.66;;;5.99;100.00
33185;BME280;19550;42.872;25.494;2023-04-01T04:25:56;95334.53;;;5.98;100.00
33185;BME280;19550;42.872;25.494;2023-04-01T04:28:23;95343.16;;;6.06;100.00
33185;BME280;19550;42.872;25.494;2023-04-01T04:30:50;95340.59;;;6.09;100.00
33185;BME280;19550;42.872;25.494;2023-04-01T04:33:17;95335.91;;;6.10;100.00
33185;BME280;19550;42.872;25.494;2023-04-01T04:35:43;95340.75;;;6.13;100.00
33185;BME280;19550;42.872;25.494;2023-04-01T04:38:12;95343.72;;;6.25;100.00
33185;BME280;19550;42.872;25.494;2023-04-01T04:40:39;95336.25;;;6.25;100.00
33185;BME280;19550;42.872;25.494;2023-04-01T04:43:06;95336.78;;;6.36;100.00
33185;BME280;19550;42.872;25.494;2023-04-01T04:45:33;95338.75;;;6.44;100.00
33185;BME280;19550;42.872;25.494;2023-04-01T04:48:00;95324.19;;;6.52;100.00
33185;BME280;19550;42.872;25.494;2023-04-01T04:50:27;95331.97;;;6.50;100.00
33185;BME280;19550;42.872;25.494;2023-04-01T04:52:53;95314.97;;;6.57;100.00
33185;BME280;19550;42.872;25.494;2023-04-01T04:55:22;95320.47;;;6.65;100.00
33185;BME280;19550;42.872;25.494;2023-04-01T04:57:49;95321.31;;;6.74;100.00
33185;BME280;19550;42.872;25.494;2023-04-01T05:00:16;95327.47;;;6.89;100.00
33185;BME280;19550;42.872;25.494;2023-04-01T05:02:43;95322.94;;;7.01;100.00
33185;BME280;19550;42.872;25.494;2023-04-01T05:05:09;95311.75;;;7.15;100.00
33185;BME280;19550;42.872;25.494;2023-04-01T05:07:36;95311.56;;;7.29;100.00
33185;BME280;19550;42.872;25.494;2023-04-01T05:10:04;95307.38;;;7.31;100.00
33185;BME280;19550;42.872;25.494;2023-04-01T05:12:33;95297.59;;;7.42;100.00
33185;BME280;19550;42.872;25.494;2023-04-01T05:15:03;95315.22;;;7.67;100.00
33185;BME280;19550;42.872;25.494;2023-04-01T05:17:30;95303.75;;;7.94;100.00
33185;BME280;19550;42.872;25.494;2023-04-01T05:19:57;95308.56;;;8.06;100.00
33185;BME280;19550;42.872;25.494;2023-04-01T05:22:24;95300.25;;;8.15;100.00
33185;BME280;19550;42.872;25.494;2023-04-01T05:24:51;95307.50;;;8.36;100.00
33185;BME280;19550;42.872;25.494;2023-04-01T05:27:18;95302.19;;;8.52;100.00
33185;BME280;19550;42.872;25.494;2023-04-01T05:29:46;95292.38;;;8.63;100.00
33185;BME280;19550;42.872;25.494;2023-04-01T05:32:13;95301.28;;;8.69;100.00
33185;BME280;19550;42.872;25.494;2023-04-01T05:34:40;95290.03;;;8.74;100.00
33185;BME280;19550;42.872;25.494;2023-04-01T05:37:07;95297.56;;;8.86;100.00
33185;BME280;19550;42.872;25.494;2023-04-01T05:39:36;95288.47;;;8.85;100.00
33185;BME280;19550;42.872;25.494;2023-04-01T05:42:03;95276.75;;;8.88;100.00
33185;BME280;19550;42.872;25.494;2023-04-01T05:44:32;95289.34;;;8.98;100.00
33185;BME280;19550;42.872;25.494;2023-04-01T05:47:00;95290.97;;;8.99;100.00
33185;BME280;19550;42.872;25.494;2023-04-01T05:49:26;95282.59;;;9.07;100.00
33185;BME280;19550;42.872;25.494;2023-04-01T05:51:53;95289.59;;;9.05;100.00
33185;BME280;19550;42.872;25.494;2023-04-01T05:54:20;95277.56;;;9.09;100.00
33185;BME280;19550;42.872;25.494;2023-04-01T05:56:47;95274.84;;;9.22;100.00
33185;BME280;19550;42.872;25.494;2023-04-01T05:59:14;95271.59;;;9.20;100.00
33185;BME280;19550;42.872;25.494;2023-04-01T06:01:41;95273.59;;;9.31;100.00
33185;BME280;19550;42.872;25.494;2023-04-01T06:04:13;95267.50;;;9.38;100.00
33185;BME280;19550;42.872;25.494;2023-04-01T06:06:41;95267.31;;;9.43;100.00
33185;BME280;19550;42.872;25.494;2023-04-01T06:09:13;95263.19;;;9.49;100.00
33185;BME280;19550;42.872;25.494;2023-04-01T06:11:51;95256.28;;;9.55;100.00
33185;BME280;19550;42.872;25.494;2023-04-01T06:14:32;95253.84;;;9.53;100.00
33185;BME280;19550;42.872;25.494;2023-04-01T06:17:16;95253.75;;;9.62;100.00
33185;BME280;19550;42.872;25.494;2023-04-01T06:19:51;95262.97;;;9.66;100.00
33185;BME280;19550;42.872;25.494;2023-04-01T06:22:39;95257.22;;;9.71;100.00
33185;BME280;19550;42.872;25.494;2023-04-01T06:25:30;95251.69;;;9.71;100.00
33185;BME280;19550;42.872;25.494;2023-04-01T06:28:16;95249.97;;;9.79;100.00
33185;BME280;19550;42.872;25.494;2023-04-01T06:30:53;95260.81;;;9.84;100.00
33185;BME280;19550;42.872;25.494;2023-04-01T06:33:41;95254.94;;;9.85;100.00
33185;BME280;19550;42.872;25.494;2023-04-01T06:39:21;95260.97;;;10.00;100.00
33185;BME280;19550;42.872;25.494;2023-04-01T06:42:10;95241.00;;;10.06;100.00
33185;BME280;19550;42.872;25.494;2023-04-01T06:44:46;95257.63;;;10.06;100.00
33185;BME280;19550;42.872;25.494;2023-04-01T06:47:28;95264.88;;;10.11;100.00
33185;BME280;19550;42.872;25.494;2023-04-01T06:50:03;95256.97;;;10.21;100.00
33185;BME280;19550;42.872;25.494;2023-04-01T06:52:42;95254.19;;;10.33;100.00
33185;BME280;19550;42.872;25.494;2023-04-01T06:55:26;95253.50;;;10.49;100.00
33185;BME280;19550;42.872;25.494;2023-04-01T06:57:55;95257.06;;;10.49;100.00
33185;BME280;19550;42.872;25.494;2023-04-01T07:00:28;95268.72;;;10.55;100.00
33185;BME280;19550;42.872;25.494;2023-04-01T07:03:05;95263.53;;;10.53;100.00
33185;BME280;19550;42.872;25.494;2023-04-01T07:05:36;95264.09;;;10.47;100.00
33185;BME280;19550;42.872;25.494;2023-04-01T07:08:08;95260.06;;;10.44;100.00
33185;BME280;19550;42.872;25.494;2023-04-01T07:10:42;95250.38;;;10.38;100.00
33185;BME280;19550;42.872;25.494;2023-04-01T07:13:14;95248.06;;;10.40;100.00
33185;BME280;19550;42.872;25.494;2023-04-01T07:15:54;95219.69;;;10.43;100.00
33185;BME280;19550;42.872;25.494;2023-04-01T07:18:25;95207.31;;;10.53;100.00
33185;BME280;19550;42.872;25.494;2023-04-01T07:20:55;95205.09;;;10.58;100.00
33185;BME280;19550;42.872;25.494;2023-04-01T07:23:27;95180.41;;;10.53;100.00
33185;BME280;19550;42.872;25.494;2023-04-01T07:25:58;95188.25;;;10.63;100.00
33185;BME280;19550;42.872;25.494;2023-04-01T07:28:30;95198.31;;;10.84;100.00
33185;BME280;19550;42.872;25.494;2023-04-01T07:31:05;95187.03;;;11.04;100.00
33185;BME280;19550;42.872;25.494;2023-04-01T07:33:39;95192.38;;;11.25;100.00
33185;BME280;19550;42.872;25.494;2023-04-01T07:36:14;95192.13;;;11.46;100.00
33185;BME280;19550;42.872;25.494;2023-04-01T07:38:53;95183.56;;;11.67;100.00
33185;BME280;19550;42.872;25.494;2023-04-01T07:41:32;95175.81;;;11.88;100.00
33185;BME280;19550;42.872;25.494;2023-04-01T07:44:10;95163.16;;;12.06;100.00
33185;BME280;19550;42.872;25.494;2023-04-01T07:46:56;95149.25;;;12.22;100.00
33185;BME280;19550;42.872;25.494;2023-04-01T07:49:31;95147.59;;;12.37;100.00
33185;BME280;19550;42.872;25.494;2023-04-01T07:52:06;95152.81;;;12.57;100.00
33185;BME280;19550;42.872;25.494;2023-04-01T07:54:40;95150.03;;;12.77;100.00
33185;BME280;19550;42.872;25.494;2023-04-01T07:57:16;95133.16;;;13.04;100.00
33185;BME280;19550;42.872;25.494;2023-04-01T07:59:50;95126.84;;;13.27;98.12
33185;BME280;19550;42.872;25.494;2023-04-01T08:02:28;95141.84;;;13.41;94.15
33185;BME280;19550;42.872;25.494;2023-04-01T08:05:09;95148.66;;;13.67;90.26
33185;BME280;19550;42.872;25.494;2023-04-01T08:07:45;95139.09;;;13.90;89.37
33185;BME280;19550;42.872;25.494;2023-04-01T08:10:22;95142.31;;;14.15;85.21
33185;BME280;19550;42.872;25.494;2023-04-01T08:12:58;95131.31;;;14.49;87.29
33185;BME280;19550;42.872;25.494;2023-04-01T08:15:36;95134.72;;;14.98;87.44
33185;BME280;19550;42.872;25.494;2023-04-01T08:18:15;95134.78;;;15.35;84.28
33185;BME280;19550;42.872;25.494;2023-04-01T08:20:50;95149.69;;;15.50;78.73
33185;BME280;19550;42.872;25.494;2023-04-01T08:23:21;95126.78;;;15.71;78.28
33185;BME280;19550;42.872;25.494;2023-04-01T08:25:54;95135.38;;;15.96;75.97
33185;BME280;19550;42.872;25.494;2023-04-01T08:28:27;95121.06;;;16.01;73.50
33185;BME280;19550;42.872;25.494;2023-04-01T08:30:58;95116.84;;;16.24;77.94
33185;BME280;19550;42.872;25.494;2023-04-01T08:33:29;95104.56;;;16.40;75.07
33185;BME280;19550;42.872;25.494;2023-04-01T08:35:59;95097.09;;;16.58;76.91
33185;BME280;19550;42.872;25.494;2023-04-01T08:38:31;95094.78;;;16.67;73.17
33185;BME280;19550;42.872;25.494;2023-04-01T08:41:09;95105.59;;;16.68;73.17
33185;BME280;19550;42.872;25.494;2023-04-01T08:47:19;95086.50;;;16.88;73.88
33185;BME280;19550;42.872;25.494;2023-04-01T08:52:51;95080.13;;;17.02;70.42
33185;BME280;19550;42.872;25.494;2023-04-01T08:55:34;95087.34;;;17.10;71.76
33185;BME280;19550;42.872;25.494;2023-04-01T09:01:13;95076.59;;;17.19;68.41
33185;BME280;19550;42.872;25.494;2023-04-01T09:03:58;95087.44;;;17.31;70.08
33185;BME280;19550;42.872;25.494;2023-04-01T09:06:35;95072.66;;;17.41;68.78
33185;BME280;19550;42.872;25.494;2023-04-01T09:09:30;95076.63;;;17.37;68.78
33185;BME280;19550;42.872;25.494;2023-04-01T09:12:26;95064.59;;;17.29;66.75
33185;BME280;19550;42.872;25.494;2023-04-01T09:15:16;95055.78;;;17.17;70.46
33185;BME280;19550;42.872;25.494;2023-04-01T09:17:53;95042.63;;;17.28;59.69
33185;BME280;19550;42.872;25.494;2023-04-01T09:20:42;95041.84;;;17.41;58.66
33185;BME280;19550;42.872;25.494;2023-04-01T09:26:44;95034.25;;;17.53;63.09
33185;BME280;19550;42.872;25.494;2023-04-01T09:29:30;95031.44;;;17.56;61.84
33185;BME280;19550;42.872;25.494;2023-04-01T09:35:19;95027.47;;;17.64;56.22
33185;BME280;19550;42.872;25.494;2023-04-01T09:37:53;95026.28;;;17.72;55.35
33185;BME280;19550;42.872;25.494;2023-04-01T09:40:26;95026.69;;;17.81;55.24
33185;BME280;19550;42.872;25.494;2023-04-01T09:43:21;95030.69;;;17.98;51.06
33185;BME280;19550;42.872;25.494;2023-04-01T09:49:15;95046.69;;;17.98;49.43
33185;BME280;19550;42.872;25.494;2023-04-01T09:51:56;95047.09;;;17.96;49.06
33185;BME280;19550;42.872;25.494;2023-04-01T09:54:36;95053.09;;;18.02;48.40
33185;BME280;19550;42.872;25.494;2023-04-01T09:57:33;95057.91;;;17.91;48.31
33185;BME280;19550;42.872;25.494;2023-04-01T10:00:34;95058.72;;;17.80;47.09
33185;BME280;19550;42.872;25.494;2023-04-01T10:03:30;95065.88;;;17.57;49.89
33185;BME280;19550;42.872;25.494;2023-04-01T10:06:30;95063.06;;;17.46;51.59
33185;BME280;19550;42.872;25.494;2023-04-01T10:12:24;95065.03;;;17.28;56.87
33185;BME280;19550;42.872;25.494;2023-04-01T10:18:24;95051.00;;;17.21;58.19
33185;BME280;19550;42.872;25.494;2023-04-01T10:24:29;95030.63;;;17.38;58.53
33185;BME280;19550;42.872;25.494;2023-04-01T10:27:22;95017.44;;;17.53;59.19
33185;BME280;19550;42.872;25.494;2023-04-01T10:33:27;94998.63;;;17.60;53.71
33185;BME280;19550;42.872;25.494;2023-04-01T10:36:18;94979.00;;;17.88;52.78
33185;BME280;19550;42.872;25.494;2023-04-01T10:39:17;94975.00;;;18.07;50.69
33185;BME280;19550;42.872;25.494;2023-04-01T10:45:17;94971.69;;;18.37;56.08
33185;BME280;19550;42.872;25.494;2023-04-01T10:54:17;94956.25;;;18.91;56.61
33185;BME280;19550;42.872;25.494;2023-04-01T10:56:50;94937.13;;;19.34;56.33
33185;BME280;19550;42.872;25.494;2023-04-01T11:06:25;94944.41;;;18.59;52.07
33185;BME280;19550;42.872;25.494;2023-04-01T11:09:46;94952.09;;;18.26;54.25
33185;BME280;19550;42.872;25.494;2023-04-01T11:15:45;94936.03;;;18.41;54.96
33185;BME280;19550;42.872;25.494;2023-04-01T11:24:49;94909.81;;;18.80;57.93
33185;BME280;19550;42.872;25.494;2023-04-01T11:27:33;94902.19;;;18.77;58.15
33185;BME280;19550;42.872;25.494;2023-04-01T11:30:14;94905.22;;;19.03;57.63
33185;BME280;19550;42.872;25.494;2023-04-01T11:32:52;94902.91;;;19.43;55.23
33185;BME280;19550;42.872;25.494;2023-04-01T11:38:27;94884.34;;;19.97;55.32
33185;BME280;19550;42.872;25.494;2023-04-01T11:41:19;94871.59;;;20.23;55.89
33185;BME280;19550;42.872;25.494;2023-04-01T11:44:02;94852.28;;;20.59;56.36
33185;BME280;19550;42.872;25.494;2023-04-01T11:46:39;94854.53;;;20.98;54.83
33185;BME280;19550;42.872;25.494;2023-04-01T11:49:33;94848.59;;;21.19;54.23
33185;BME280;19550;42.872;25.494;2023-04-01T11:52:21;94835.84;;;21.34;54.85
33185;BME280;19550;42.872;25.494;2023-04-01T11:55:10;94851.28;;;21.50;52.74
33185;BME280;19550;42.872;25.494;2023-04-01T11:58:08;94848.00;;;21.74;54.41
33185;BME280;19550;42.872;25.494;2023-04-01T12:00:51;94852.88;;;21.51;55.59
33185;BME280;19550;42.872;25.494;2023-04-01T12:03:37;94845.03;;;21.38;56.22
33185;BME280;19550;42.872;25.494;2023-04-01T12:06:14;94844.91;;;21.69;52.18
33185;BME280;19550;42.872;25.494;2023-04-01T12:08:52;94831.66;;;21.42;52.02
33185;BME280;19550;42.872;25.494;2023-04-01T12:11:28;94823.38;;;21.55;51.73
33185;BME280;19550;42.872;25.494;2023-04-01T12:14:04;94825.78;;;21.80;51.97
33185;BME280;19550;42.872;25.494;2023-04-01T12:16:45;94825.56;;;21.67;51.29
33185;BME280;19550;42.872;25.494;2023-04-01T12:19:19;94824.75;;;21.47;51.84
33185;BME280;19550;42.872;25.494;2023-04-01T12:21:59;94824.31;;;21.49;50.76
33185;BME280;19550;42.872;25.494;2023-04-01T12:24:47;94814.88;;;21.35;52.49
33185;BME280;19550;42.872;25.494;2023-04-01T12:27:31;94819.13;;;21.47;49.94
33185;BME280;19550;42.872;25.494;2023-04-01T12:30:25;94808.91;;;21.76;48.62
33185;BME280;19550;42.872;25.494;2023-04-01T12:33:05;94810.41;;;22.24;48.83
33185;BME280;19550;42.872;25.494;2023-04-01T12:35:49;94816.19;;;22.17;50.61
33185;BME280;19550;42.872;25.494;2023-04-01T12:38:29;94818.66;;;21.49;53.33
33185;BME280;19550;42.872;25.494;2023-04-01T12:41:12;94813.25;;;21.11;54.71
33185;BME280;19550;42.872;25.494;2023-04-01T12:44:02;94806.25;;;21.23;55.02
33185;BME280;19550;42.872;25.494;2023-04-01T12:49:39;94812.88;;;21.59;54.18
33185;BME280;19550;42.872;25.494;2023-04-01T12:52:13;94810.00;;;21.39;55.50
33185;BME280;19550;42.872;25.494;2023-04-01T12:58:15;94796.19;;;20.95;57.03
33185;BME280;19550;42.872;25.494;2023-04-01T13:01:06;94806.53;;;20.78;57.43
33185;BME280;19550;42.872;25.494;2023-04-01T13:03:47;94797.22;;;20.54;57.80
33185;BME280;19550;42.872;25.494;2023-04-01T13:06:40;94809.50;;;20.07;61.60
33185;BME280;19550;42.872;25.494;2023-04-01T13:09:19;94805.41;;;19.81;63.48
33185;BME280;19550;42.872;25.494;2023-04-01T13:12:03;94805.66;;;19.56;64.70
33185;BME280;19550;42.872;25.494;2023-04-01T13:15:05;94799.88;;;19.29;66.30
33185;BME280;19550;42.872;25.494;2023-04-01T13:17:40;94791.09;;;19.27;66.88
33185;BME280;19550;42.872;25.494;2023-04-01T13:20:18;94778.53;;;19.35;67.18
33185;BME280;19550;42.872;25.494;2023-04-01T13:23:00;94785.94;;;19.19;67.29
33185;BME280;19550;42.872;25.494;2023-04-01T13:25:35;94775.09;;;19.21;67.20
33185;BME280;19550;42.872;25.494;2023-04-01T13:28:10;94772.75;;;19.12;68.65
33185;BME280;19550;42.872;25.494;2023-04-01T13:30:45;94770.47;;;18.96;68.81
33185;BME280;19550;42.872;25.494;2023-04-01T13:33:17;94767.91;;;18.72;68.84
33185;BME280;19550;42.872;25.494;2023-04-01T13:35:56;94779.91;;;18.72;68.79
33185;BME280;19550;42.872;25.494;2023-04-01T13:39:02;94765.41;;;18.81;68.85
33185;BME280;19550;42.872;25.494;2023-04-01T13:41:47;94755.47;;;18.73;69.46
33185;BME280;19550;42.872;25.494;2023-04-01T13:44:21;94764.38;;;18.60;69.01
33185;BME280;19550;42.872;25.494;2023-04-01T13:47:06;94751.16;;;18.54;69.52
33185;BME280;19550;42.872;25.494;2023-04-01T13:52:44;94747.91;;;18.62;68.40
33185;BME280;19550;42.872;25.494;2023-04-01T13:55:35;94758.03;;;18.42;69.27
33185;BME280;19550;42.872;25.494;2023-04-01T13:58:48;94752.88;;;18.41;70.14
33185;BME280;19550;42.872;25.494;2023-04-01T14:01:23;94742.91;;;18.33;70.30
33185;BME280;19550;42.872;25.494;2023-04-01T14:04:33;94734.16;;;18.20;70.88
33185;BME280;19550;42.872;25.494;2023-04-01T14:07:18;94738.56;;;18.17;71.81
33185;BME280;19550;42.872;25.494;2023-04-01T14:10:07;94734.56;;;18.18;71.68
33185;BME280;19550;42.872;25.494;2023-04-01T14:12:39;94727.72;;;18.23;71.32
33185;BME280;19550;42.872;25.494;2023-04-01T14:15:39;94726.13;;;18.25;70.89
33185;BME280;19550;42.872;25.494;2023-04-01T14:18:17;94714.13;;;18.18;71.04
33185;BME280;19550;42.872;25.494;2023-04-01T14:20:52;94713.38;;;18.14;70.78
33185;BME280;19550;42.872;25.494;2023-04-01T14:23:40;94693.81;;;18.03;70.90
33185;BME280;19550;42.872;25.494;2023-04-01T14:26:31;94691.38;;;18.05;70.98
33185;BME280;19550;42.872;25.494;2023-04-01T14:29:10;94700.59;;;18.06;71.01
33185;BME280;19550;42.872;25.494;2023-04-01T14:31:48;94711.94;;;17.88;70.34
33185;BME280;19550;42.872;25.494;2023-04-01T14:34:29;94742.84;;;17.70;73.76
33185;BME280;19550;42.872;25.494;2023-04-01T14:37:21;94813.78;;;17.25;73.51
33185;BME280;19550;42.872;25.494;2023-04-01T14:40:26;94892.84;;;16.51;78.90
33185;BME280;19550;42.872;25.494;2023-04-01T14:43:09;94952.84;;;15.30;99.12
33185;BME280;19550;42.872;25.494;2023-04-01T14:45:59;94989.34;;;13.80;100.00
33185;BME280;19550;42.872;25.494;2023-04-01T14:48:33;95016.50;;;12.92;100.00